Latest Weather Observations for Cocos Island

IDW60801

Issued at 7:33 pm WST Friday 16 November 2018 (issued every 10 minutes, with the page automatically refreshed every 10 minutes)

About weather observations | Map of weather stations | Latest weather observations for WA | Other Formats
Station Details ID: 200284 Name: COCOS ISLAND AIRPORT Lat: -12.19 Lon: 96.83 Height: 3.0 m
Data from the previous 72 hours. | See also: Recent months at Cocos Island
Date/Time
WST
Temp
°C
App
Temp
°C
Dew
Point
°C
Rel
Hum
%
Delta-T
°C
Wind Press
QNH
hPa
Press
MSL
hPa
Rain since
9am
mm
Dir  Spd
km/h
Gust
km/h
Spd
kts
Gust
kts
16/07:30pm 27.3 29.0 24.7 86 1.8 E 24 32 13 17 1010.8 1010.8 7.6
16/07:00pm 27.7 27.9 25.0 85 1.9 E 33 37 18 20 1010.4 1010.4 7.6
16/06:35pm 27.7 28.1 25.1 86 1.8 E 32 37 17 20 1010.0 1010.0 7.6
16/06:30pm 27.8 28.2 25.1 85 1.9 E 32 35 17 19 1010.0 1010.0 7.6
16/06:00pm 27.8 28.7 25.2 86 1.8 E 30 35 16 19 1009.9 1009.9 7.6
16/05:30pm 27.4 29.3 25.0 87 1.7 E 24 32 13 17 1009.7 1009.7 7.6
16/05:00pm 28.0 29.3 24.6 82 2.4 ENE 26 30 14 16 1009.5 1009.5 7.6
16/04:30pm 28.7 31.6 25.4 82 2.3 ENE 20 30 11 16 1009.6 1009.6 7.6
16/04:00pm 28.4 31.4 25.3 83 2.2 ENE 19 26 10 14 1009.7 1009.7 7.4
16/03:30pm 28.1 32.0 26.1 89 1.4 NE 17 24 9 13 1009.9 1009.9 7.4
16/03:28pm 27.9 31.8 26.1 90 1.3 NE 17 24 9 13 1009.9 1009.9 7.4
16/03:08pm 27.3 29.9 25.5 90 1.3 ENE 22 32 12 17 1010.1 1010.1 6.8
16/03:00pm 28.2 31.4 25.5 85 1.9 ENE 19 26 10 14 1010.1 1010.1 5.8
16/02:30pm 27.0 29.5 25.4 91 1.1 ENE 22 28 12 15 1010.3 1010.3 5.8
16/02:19pm 26.4 28.7 25.0 92 1.0 ENE 22 33 12 18 1010.4 1010.4 5.8
16/02:08pm 26.3 27.2 24.6 90 1.2 NE 28 39 15 21 1010.6 1010.6 4.4
16/02:02pm 27.7 27.8 24.5 83 2.2 ENE 32 39 17 21 1010.6 1010.6 0.0
16/02:00pm 28.2 28.5 24.8 82 2.4 ENE 32 39 17 21 1010.6 1010.6 0.0
16/01:30pm 29.2 28.9 24.8 77 3.1 E 35 41 19 22 1011.0 1011.0 0.0
16/01:00pm 28.7 28.0 24.8 79 2.7 E 37 44 20 24 1011.2 1011.2 0.0
16/12:30pm 28.9 28.5 24.6 77 3.0 E 35 41 19 22 1011.4 1011.4 0.0
16/12:00pm 28.8 28.0 24.6 78 2.9 E 37 41 20 22 1011.7 1011.7 0.0
16/11:30am 28.7 28.4 24.8 79 2.7 E 35 43 19 23 1011.8 1011.8 0.0
16/11:00am 28.2 27.2 24.3 79 2.7 E 37 44 20 24 1011.9 1011.9 0.2
16/10:30am 27.7 26.6 24.2 81 2.4 E 37 43 20 23 1011.9 1011.9 0.2
16/10:00am 27.7 27.0 24.1 81 2.5 E 35 43 19 23 1011.9 1011.9 0.0
16/09:30am 27.3 26.4 23.8 81 2.4 E 35 39 19 21 1011.7 1011.7 0.0
16/09:00am 27.5 26.1 23.7 80 2.6 E 37 43 20 23 1011.6 1011.6 0.0
16/08:30am 26.8 26.5 23.9 84 2.0 E 32 37 17 20 1011.5 1011.5 0.0
16/08:00am 26.6 26.0 23.7 84 2.0 E 33 39 18 21 1011.2 1011.2 0.0
16/07:30am 26.6 25.7 23.8 84 1.9 E 35 41 19 22 1010.9 1010.9 0.0
16/07:00am 26.4 25.7 23.6 84 1.9 E 33 41 18 22 1010.4 1010.4 0.0
16/06:30am 26.5 25.9 23.4 83 2.1 E 32 39 17 21 1010.1 1010.1 0.0
16/06:00am 26.5 26.8 23.6 84 2.0 E 28 41 15 22 1009.9 1009.9 0.0
16/05:30am 26.4 26.7 23.6 84 1.9 E 28 37 15 20 1009.6 1009.6 0.0
16/05:00am 26.5 28.0 23.7 84 1.9 E 22 35 12 19 1009.4 1009.4 0.0
16/04:30am 26.6 27.4 23.8 84 1.9 E 26 37 14 20 1009.5 1009.5 0.0
16/04:00am 26.6 27.4 23.8 84 1.9 E 26 41 14 22 1009.8 1009.8 0.0
16/03:30am 26.6 27.1 24.0 86 1.8 E 28 39 15 21 1010.0 1010.0 0.0
16/03:00am 26.6 27.4 23.8 84 1.9 E 26 37 14 20 1010.3 1010.3 0.0
16/02:30am 26.6 26.4 24.0 86 1.8 E 32 43 17 23 1010.4 1010.4 0.0
16/02:26am 26.7 26.4 23.8 84 2.0 E 32 43 17 23 1010.4 1010.4 0.0
16/02:02am 26.6 27.1 24.0 86 1.8 E 28 37 15 20 1010.6 1010.6 0.0
16/02:00am 26.6 27.2 24.1 86 1.7 E 28 37 15 20 1010.6 1010.6 0.0
16/01:54am 26.6 27.2 24.1 86 1.7 E 28 37 15 20 1010.6 1010.6 0.0
16/01:37am 26.5 26.8 24.2 87 1.6 E 30 41 16 22 1010.8 1010.8 0.0
16/01:30am 26.7 26.8 23.9 84 1.9 E 30 35 16 19 1011.0 1011.0 0.0
16/01:00am 26.8 26.7 24.3 86 1.7 E 32 39 17 21 1011.4 1011.4 0.0
16/12:30am 26.8 26.5 24.2 86 1.8 E 33 41 18 22 1011.8 1011.8 0.0
16/12:00am 27.0 27.2 24.1 84 2.0 E 30 39 16 21 1011.9 1011.9 0.0
 
Date/Time
WST
Temp
°C
App
Temp
°C
Dew
Point
°C
Rel
Hum
%
Delta-T
°C
Wind Press
QNH
hPa
Press
MSL
hPa
Rain since
9am
mm
Dir  Spd
km/h
Gust
km/h
Spd
kts
Gust
kts
15/11:30pm 27.0 26.2 24.0 83 2.1 E 35 44 19 24 1012.1 1012.1 0.0
15/11:00pm 27.1 25.9 23.9 82 2.2 E 37 43 20 23 1012.0 1012.0 0.0
15/10:30pm 27.0 26.6 24.1 84 2.0 E 33 43 18 23 1011.8 1011.8 0.0
15/10:00pm 27.0 26.8 24.0 83 2.1 E 32 41 17 22 1011.7 1011.7 0.0
15/09:30pm 27.0 27.0 23.8 82 2.2 E 30 39 16 21 1011.6 1011.6 0.0
15/09:00pm 27.1 27.0 23.6 81 2.4 E 30 39 16 21 1011.3 1011.3 0.0
15/08:30pm 27.1 27.1 23.8 82 2.3 E 30 37 16 20 1011.1 1011.1 0.0
15/08:00pm 27.1 28.4 24.1 84 2.1 E 24 35 13 19 1010.7 1010.7 0.0
15/07:30pm 27.0 27.4 23.8 82 2.2 E 28 39 15 21 1010.2 1010.2 0.0
15/07:00pm 26.0 25.3 23.5 86 1.7 E 33 46 18 25 1009.8 1009.8 0.0
15/06:30pm 27.6 27.8 24.1 81 2.4 E 30 43 16 23 1009.3 1009.3 0.0
15/06:00pm 27.3 26.5 23.0 77 2.9 E 32 43 17 23 1009.1 1009.1 0.0
15/05:50pm 26.9 25.8 22.8 78 2.8 E 33 44 18 24 1009.1 1009.1 0.0
15/05:36pm 26.7 26.6 24.2 86 1.7 E 32 50 17 27 1009.2 1009.2 0.0
15/05:32pm 26.5 25.5 23.6 84 2.0 E 35 50 19 27 1009.2 1009.2 0.0
15/05:30pm 26.8 25.9 23.9 84 2.0 E 35 50 19 27 1009.3 1009.3 0.0
15/05:26pm 27.4 27.3 23.6 80 2.6 ESE 30 50 16 27 1009.2 1009.2 0.0
15/05:00pm 27.3 27.1 24.0 82 2.3 E 32 44 17 24 1009.1 1009.1 0.0
15/04:30pm 28.1 27.9 24.1 79 2.8 E 32 43 17 23 1009.1 1009.1 0.0
15/04:00pm 28.2 27.3 23.9 77 3.0 E 35 44 19 24 1009.2 1009.2 0.0
15/03:30pm 28.1 28.2 23.9 78 2.9 E 30 43 16 23 1009.2 1009.2 0.0
15/03:00pm 27.7 26.9 23.3 77 3.0 E 33 39 18 21 1009.5 1009.5 0.0
15/02:30pm 28.1 29.6 23.7 77 3.0 ESE 22 39 12 21 1009.7 1009.7 0.0
15/02:00pm 27.9 28.1 23.5 77 3.0 E 28 41 15 22 1010.1 1010.1 0.0
15/01:30pm 28.6 27.2 23.7 75 3.4 E 37 43 20 23 1010.6 1010.6 0.0
15/01:00pm 27.7 26.9 23.0 75 3.2 E 32 46 17 25 1010.9 1010.9 0.0
15/12:30pm 27.8 28.7 23.4 77 3.0 ESE 24 41 13 22 1010.9 1010.9 0.0
15/12:00pm 27.7 27.5 24.1 81 2.5 E 32 44 17 24 1010.8 1010.8 0.0
15/11:30am 28.3 29.0 23.7 76 3.2 ESE 26 41 14 22 1010.8 1010.8 0.0
15/11:00am 27.3 27.5 23.4 79 2.7 E 28 43 15 23 1011.1 1011.1 0.0
15/10:30am 27.0 26.2 23.3 80 2.5 E 33 43 18 23 1011.2 1011.2 0.0
15/10:00am 27.3 26.8 23.8 81 2.4 E 33 43 18 23 1011.3 1011.3 0.0
15/09:30am 27.1 26.4 23.6 81 2.4 E 33 39 18 21 1011.3 1011.3 0.0
15/09:00am 27.2 26.3 23.1 78 2.8 E 33 41 18 22 1011.1 1011.1 0.0
15/08:30am 26.5 25.9 23.3 82 2.2 E 32 37 17 20 1010.9 1010.9 0.0
15/08:00am 26.3 26.2 23.5 84 1.9 E 30 35 16 19 1010.8 1010.8 0.0
15/07:30am 26.0 25.8 23.4 85 1.8 E 30 35 16 19 1010.5 1010.5 0.0
15/07:00am 26.2 25.8 23.1 83 2.1 E 30 39 16 21 1010.1 1010.1 0.0
15/06:56am 26.1 25.7 23.0 83 2.1 E 30 39 16 21 1010.0 1010.0 0.0
15/06:30am 26.1 26.6 23.3 84 1.9 E 26 33 14 18 1009.7 1009.7 0.0
15/06:00am 26.1 25.7 23.0 83 2.1 E 30 39 16 21 1009.5 1009.5 0.0
15/05:30am 26.1 28.3 23.3 84 1.9 ESE 17 32 9 17 1009.1 1009.1 0.0
15/05:24am 26.2 27.8 23.3 84 2.0 ESE 20 32 11 17 1009.1 1009.1 0.0
15/05:00am 26.1 27.7 23.2 84 2.0 ESE 20 30 11 16 1009.1 1009.1 0.0
15/04:30am 26.0 28.3 23.4 85 1.8 ESE 17 30 9 16 1009.3 1009.3 0.0
15/04:00am 26.0 26.9 22.7 82 2.2 E 22 35 12 19 1009.4 1009.4 0.0
15/03:30am 26.2 27.9 23.0 82 2.2 ESE 19 28 10 15 1009.7 1009.7 0.0
15/03:00am 26.2 28.0 22.5 80 2.5 ESE 17 33 9 18 1009.9 1009.9 0.0
15/02:30am 26.3 28.2 22.8 81 2.4 ESE 17 26 9 14 1010.3 1010.3 0.0
15/02:00am 26.2 26.6 22.5 80 2.5 E 24 35 13 19 1010.7 1010.7 0.0
15/01:30am 26.4 26.9 22.7 80 2.5 E 24 32 13 17 1010.8 1010.8 0.0
15/01:00am 26.3 27.1 22.4 79 2.6 E 22 30 12 16 1011.0 1011.0 0.0
15/12:30am 26.3 26.6 22.3 78 2.7 E 24 33 13 18 1011.3 1011.3 0.0
15/12:00am 26.4 27.4 21.8 76 3.1 ESE 19 32 10 17 1011.5 1011.5 0.0
 
Date/Time
WST
Temp
°C
App
Temp
°C
Dew
Point
°C
Rel
Hum
%
Delta-T
°C
Wind Press
QNH
hPa
Press
MSL
hPa
Rain since
9am
mm
Dir  Spd
km/h
Gust
km/h
Spd
kts
Gust
kts
14/11:30pm 26.5 27.1 21.4 73 3.4 ESE 20 32 11 17 1011.4 1011.4 0.0
14/11:00pm 26.4 26.7 21.6 75 3.2 ESE 22 39 12 21 1011.0 1011.0 0.0
14/10:30pm 26.4 26.6 21.3 73 3.4 ESE 22 33 12 18 1010.8 1010.8 0.0
14/10:00pm 26.5 26.0 21.4 73 3.4 ESE 26 35 14 19 1010.7 1010.7 0.0
14/09:30pm 26.5 27.0 21.2 72 3.5 ESE 20 32 11 17 1010.8 1010.8 0.0
14/09:00pm 26.6 27.2 21.3 72 3.5 ESE 20 32 11 17 1010.6 1010.6 0.0
14/08:30pm 26.6 27.5 21.5 73 3.4 ESE 19 30 10 16 1010.4 1010.4 0.0
14/08:00pm 26.7 26.0 21.1 71 3.7 E 26 32 14 17 1010.2 1010.2 0.0
14/07:30pm 26.8 25.9 21.4 72 3.6 E 28 35 15 19 1009.7 1009.7 0.0
14/07:00pm 26.9 27.9 21.7 73 3.5 ESE 19 28 10 15 1009.4 1009.4 0.0
14/06:30pm 26.9 27.6 21.5 72 3.6 ESE 20 30 11 16 1009.0 1009.0 0.0
14/06:00pm 27.1 27.6 21.1 69 4.0 ESE 20 30 11 16 1008.7 1008.7 0.0
14/05:30pm 27.3 27.9 21.3 69 4.0 ESE 20 32 11 17 1008.5 1008.5 0.0
14/05:00pm 27.3 27.0 21.1 69 4.1 ESE 24 33 13 18 1008.5 1008.5 0.0
14/04:30pm 28.0 28.0 21.7 68 4.2 ESE 24 35 13 19 1008.6 1008.6 0.0
14/04:00pm 28.2 28.2 21.6 67 4.4 ESE 24 35 13 19 1008.6 1008.6 0.0
14/03:30pm 28.1 28.2 21.9 69 4.2 ESE 24 35 13 19 1009.0 1009.0 0.0
14/03:00pm 28.9 28.5 20.9 62 5.3 ESE 24 35 13 19 1009.1 1009.1 0.0
14/02:30pm 28.4 28.2 21.2 65 4.8 ESE 24 35 13 19 1009.2 1009.2 0.0
14/02:00pm 28.4 28.0 21.0 64 4.9 ESE 24 35 13 19 1009.5 1009.5 0.0
14/01:30pm 28.7 29.3 21.4 64 4.9 ESE 20 32 11 17 1010.0 1010.0 0.0
14/01:00pm 28.0 28.1 21.1 66 4.6 ESE 22 33 12 18 1010.2 1010.2 0.0
14/12:30pm 28.4 28.4 21.0 64 4.9 ESE 22 33 12 18 1010.3 1010.3 0.0
14/12:00pm 27.7 28.2 21.2 67 4.3 ESE 20 32 11 17 1010.5 1010.5 0.0
14/11:30am 27.6 27.6 21.0 67 4.4 ESE 22 33 12 18 1010.6 1010.6 0.0
14/11:00am 27.4 27.5 21.2 69 4.1 ESE 22 32 12 17 1010.8 1010.8 0.0
14/10:30am 27.1 27.7 21.4 71 3.8 ESE 20 32 11 17 1010.9 1010.9 0.0
14/10:00am 26.7 27.5 21.3 72 3.6 ESE 19 28 10 15 1011.1 1011.1 0.0
14/09:30am 26.7 27.3 21.3 72 3.6 ESE 20 30 11 16 1010.9 1010.9 0.0
14/09:00am 26.3 26.3 21.7 76 3.1 E 24 32 13 17 1010.5 1010.5 0.0
14/08:30am 26.3 27.3 21.0 72 3.5 ESE 17 33 9 18 1010.4 1010.4 0.0
14/08:01am 26.0 27.0 20.2 70 3.8 ESE 15 22 8 12 1010.2 1010.2 0.0
14/08:00am 26.0 27.1 20.5 71 3.6 ESE 15 20 8 11 1010.2 1010.2 0.0
14/07:30am 25.7 26.9 20.7 74 3.3 ESE 15 22 8 12 1009.7 1009.7 0.0
14/07:00am 25.6 27.4 21.1 76 3.0 ESE 13 20 7 11 1009.4 1009.4 0.0
14/06:30am 25.6 26.9 20.9 75 3.1 ESE 15 24 8 13 1009.1 1009.1 0.0
14/06:00am 25.7 26.7 21.0 75 3.1 ESE 17 26 9 14 1008.9 1008.9 0.0
14/05:30am 25.6 26.1 21.2 76 2.9 E 20 32 11 17 1008.7 1008.7 0.0
14/05:00am 25.7 26.0 20.7 74 3.3 E 20 28 11 15 1008.7 1008.7 0.0
14/04:30am 25.7 26.3 21.0 75 3.1 E 19 32 10 17 1008.7 1008.7 0.0
14/04:00am 25.7 26.2 21.2 76 3.0 E 20 28 11 15 1008.8 1008.8 0.0
14/03:30am 25.7 26.4 21.2 76 3.0 ESE 19 28 10 15 1009.0 1009.0 0.0
14/03:06am 25.9 25.6 21.1 75 3.2 E 24 32 13 17 1009.3 1009.3 0.0
14/03:00am 25.9 26.0 21.2 75 3.1 E 22 30 12 16 1009.3 1009.3 0.0
14/02:43am 25.9 27.1 21.4 76 3.0 ESE 17 28 9 15 1009.6 1009.6 0.0
14/02:30am 26.1 26.7 21.3 75 3.2 E 20 28 11 15 1009.8 1009.8 0.0
14/02:00am 26.0 26.7 21.2 75 3.2 ESE 19 28 10 15 1010.0 1010.0 0.0
14/01:30am 25.7 24.3 21.2 76 3.0 E 30 41 16 22 1010.1 1010.1 0.0
14/01:00am 26.2 26.6 21.7 76 3.0 E 22 32 12 17 1010.4 1010.4 0.0
14/12:30am 25.1 24.5 22.0 83 2.1 ESE 28 37 15 20 1010.7 1010.7 0.0
14/12:00am 25.9 26.1 21.4 76 3.0 ESE 22 35 12 19 1010.8 1010.8 0.0
 
Date/Time
WST
Temp
°C
App
Temp
°C
Dew
Point
°C
Rel
Hum
%
Delta-T
°C
Wind Press
QNH
hPa
Press
MSL
hPa
Rain since
9am
mm
Dir  Spd
km/h
Gust
km/h
Spd
kts
Gust
kts
13/11:30pm 25.9 25.9 21.7 77 2.8 ESE 24 35 13 19 1010.9 1010.9 0.0
13/11:00pm 26.0 26.7 21.6 76 2.9 ESE 20 33 11 18 1010.8 1010.8 0.0
13/10:30pm 25.9 26.0 21.9 78 2.7 ESE 24 35 13 19 1010.6 1010.6 0.0
13/10:00pm 26.2 26.3 21.9 77 2.9 ESE 24 43 13 23 1010.4 1010.4 0.0
13/09:30pm 26.4 26.9 21.1 72 3.5 ESE 20 33 11 18 1010.5 1010.5 0.0

Other Formats:

Comma delimited format used in spreadsheet applications
http://www.bom.gov.au/fwo/IDW60801/IDW60801.96996.axf

JavaScript Object Notation format (JSON) in row-major order
http://www.bom.gov.au/fwo/IDW60801/IDW60801.96996.json